Time;durP1;ratioP1;P1;durP2;ratioP2;P2;SDS_P1;SDS_P2;PMS_P1;PMS_P2;Temp;Humidity;BMP_temperature;BMP_pressure;BME280_temperature;BME280_humidity;BME280_pressure;Samples;Min_cycle;Max_cycle;Signal;HPM_P1;HPM_P2
2023/05/08 00:00:45;;;;;;;6.27;5.43;;;14.90;99.90;;;;;;4976294;28;20204;-83
2023/05/08 00:03:11;;;;;;;8.00;6.00;;;14.90;99.90;;;;;;4976341;28;20251;-80
2023/05/08 00:05:36;;;;;;;6.57;5.77;;;14.90;99.90;;;;;;4976806;28;20688;-82
2023/05/08 00:08:02;;;;;;;7.67;5.67;;;14.80;99.90;;;;;;4978223;28;20189;-83
2023/05/08 00:10:28;;;;;;;6.77;5.77;;;14.80;99.90;;;;;;4977461;28;20235;-79
2023/05/08 00:12:55;;;;;;;8.23;6.40;;;14.80;99.90;;;;;;4977471;28;20181;-83
2023/05/08 00:15:21;;;;;;;9.93;5.50;;;14.80;99.90;;;;;;4977369;28;20462;-78
2023/05/08 00:17:46;;;;;;;7.17;6.13;;;14.70;99.90;;;;;;4977340;28;20446;-83
2023/05/08 00:20:12;;;;;;;8.90;6.40;;;14.60;99.90;;;;;;4977392;28;20445;-83
2023/05/08 00:22:39;;;;;;;7.10;5.80;;;14.50;99.90;;;;;;4977095;28;20615;-83
2023/05/08 00:25:05;;;;;;;7.60;5.90;;;14.40;99.90;;;;;;4975942;28;20232;-80
2023/05/08 00:27:31;;;;;;;7.83;5.40;;;14.40;99.90;;;;;;4975923;28;20924;-82
2023/05/08 00:29:57;;;;;;;6.40;5.70;;;14.40;99.90;;;;;;4977062;28;20430;-83
2023/05/08 00:32:23;;;;;;;8.37;6.00;;;14.40;99.90;;;;;;4975978;28;20418;-80
2023/05/08 00:34:49;;;;;;;7.77;5.50;;;14.40;99.90;;;;;;4977256;28;20541;-80
2023/05/08 00:37:15;;;;;;;6.10;5.50;;;14.40;99.90;;;;;;4977059;28;20413;-81
2023/05/08 00:39:41;;;;;;;7.23;5.17;;;14.30;99.90;;;;;;4977453;28;20235;-80
2023/05/08 00:42:06;;;;;;;6.30;5.70;;;14.20;99.90;;;;;;4975654;28;20216;-83
2023/05/08 00:44:32;;;;;;;6.30;5.67;;;14.20;99.90;;;;;;4975861;28;20285;-79
2023/05/08 00:46:57;;;;;;;7.30;5.37;;;14.10;99.90;;;;;;4975939;28;20222;-79
2023/05/08 00:49:24;;;;;;;5.67;5.07;;;14.10;99.90;;;;;;4975870;28;20662;-79
2023/05/08 00:51:53;;;;;;;5.10;4.60;;;14.00;99.90;;;;;;4975391;28;20232;-79
2023/05/08 00:54:19;;;;;;;5.50;4.87;;;13.90;99.90;;;;;;4976729;28;20433;-79
2023/05/08 00:56:48;;;;;;;9.97;5.13;;;14.00;99.90;;;;;;4976621;28;20437;-82
2023/05/08 00:59:15;;;;;;;4.70;4.20;;;14.00;99.90;;;;;;4977052;28;20416;-79
2023/05/08 01:01:42;;;;;;;5.70;5.20;;;14.00;99.90;;;;;;4975262;28;20472;-83
2023/05/08 01:04:08;;;;;;;6.63;5.60;;;13.90;99.90;;;;;;4976591;28;20469;-79
2023/05/08 01:06:35;;;;;;;6.23;5.10;;;13.90;99.90;;;;;;4975201;28;20437;-80
2023/05/08 01:09:02;;;;;;;5.17;4.60;;;13.90;99.90;;;;;;4975339;28;20180;-83
2023/05/08 01:11:41;;;;;;;6.97;4.70;;;14.00;99.90;;;;;;4975094;28;20828;-83
2023/05/08 01:14:15;;;;;;;7.37;4.53;;;13.90;99.90;;;;;;4975281;28;20437;-80
2023/05/08 01:17:06;;;;;;;6.90;4.57;;;13.80;99.90;;;;;;4976302;28;20426;-79
2023/05/08 01:20:02;;;;;;;5.40;4.90;;;13.70;99.90;;;;;;4975175;28;20529;-83
2023/05/08 01:22:44;;;;;;;5.03;4.50;;;13.70;99.90;;;;;;4974921;28;20553;-79
2023/05/08 01:25:37;;;;;;;5.00;4.60;;;13.60;99.90;;;;;;4976110;28;20442;-83
2023/05/08 01:28:18;;;;;;;7.50;4.80;;;13.60;99.90;;;;;;4976152;28;20427;-79
2023/05/08 01:30:58;;;;;;;6.03;5.43;;;13.60;99.90;;;;;;4976245;28;20904;-84
2023/05/08 01:33:24;;;;;;;5.83;4.40;;;13.60;99.90;;;;;;4976722;28;20772;-83
2023/05/08 01:35:57;;;;;;;6.73;4.67;;;13.60;99.90;;;;;;4974566;28;20446;-80
2023/05/08 01:38:39;;;;;;;5.80;4.43;;;13.60;99.90;;;;;;4974792;28;20601;-82
2023/05/08 01:41:13;;;;;;;5.63;4.40;;;13.50;99.90;;;;;;4975865;28;20422;-83
2023/05/08 01:44:01;;;;;;;6.07;4.67;;;13.60;99.90;;;;;;4974222;28;20513;-80
2023/05/08 01:46:31;;;;;;;4.93;4.57;;;13.60;99.90;;;;;;4970219;28;20959;-80
2023/05/08 01:49:07;;;;;;;4.87;3.87;;;13.60;99.90;;;;;;4976000;28;20414;-82
2023/05/08 01:51:39;;;;;;;4.70;3.53;;;13.60;99.90;;;;;;4975721;28;20951;-80
2023/05/08 01:54:09;;;;;;;4.83;4.37;;;13.60;99.90;;;;;;4974520;28;20430;-82
2023/05/08 01:56:37;;;;;;;4.43;3.60;;;13.50;99.90;;;;;;4975577;28;20450;-83
2023/05/08 01:59:04;;;;;;;6.40;3.93;;;13.50;99.90;;;;;;4975816;28;20832;-82
2023/05/08 02:01:32;;;;;;;8.60;4.17;;;13.50;99.90;;;;;;4975404;28;20473;-80
2023/05/08 02:03:59;;;;;;;5.00;4.07;;;13.50;99.90;;;;;;4975493;28;20566;-80
2023/05/08 02:06:27;;;;;;;9.40;5.27;;;13.40;99.90;;;;;;4975383;28;20433;-82
2023/05/08 02:08:55;;;;;;;4.20;3.80;;;13.40;99.90;;;;;;4973996;28;20427;-83
2023/05/08 02:11:23;;;;;;;4.60;4.17;;;13.40;99.90;;;;;;4975316;28;20453;-79
2023/05/08 02:13:50;;;;;;;3.73;3.27;;;13.40;99.90;;;;;;4974099;28;20441;-79
2023/05/08 02:16:17;;;;;;;3.90;3.50;;;13.40;99.90;;;;;;4975233;28;20481;-82
2023/05/08 02:18:49;;;;;;;4.60;3.27;;;13.40;99.90;;;;;;4975651;28;20426;-84
2023/05/08 02:21:16;;;;;;;3.53;3.20;;;13.40;99.90;;;;;;4976202;28;20423;-83
2023/05/08 02:23:44;;;;;;;4.13;3.73;;;13.40;99.90;;;;;;4975607;28;20896;-80
2023/05/08 02:26:12;;;;;;;4.87;4.00;;;13.40;99.90;;;;;;4975167;28;20505;-83
2023/05/08 02:28:39;;;;;;;4.30;3.90;;;13.40;99.90;;;;;;4975282;28;20431;-79
2023/05/08 02:31:06;;;;;;;4.93;4.43;;;13.30;99.90;;;;;;4973699;28;20434;-83
2023/05/08 02:33:33;;;;;;;3.70;3.33;;;13.40;99.90;;;;;;4975254;28;20435;-83
2023/05/08 02:35:59;;;;;;;4.27;3.87;;;13.40;99.90;;;;;;4974887;28;20449;-83
2023/05/08 02:38:26;;;;;;;5.73;3.80;;;13.40;99.90;;;;;;4975155;28;20506;-83
2023/05/08 02:40:59;;;;;;;4.47;4.07;;;13.30;99.90;;;;;;4974847;28;20426;-83
2023/05/08 02:43:25;;;;;;;3.83;3.43;;;13.20;99.90;;;;;;4975077;28;20944;-83
2023/05/08 02:46:11;;;;;;;3.47;3.27;;;13.30;99.90;;;;;;4973558;28;20504;-82
2023/05/08 02:48:50;;;;;;;5.60;4.40;;;13.30;99.90;;;;;;4975199;28;20433;-80
2023/05/08 02:51:37;;;;;;;4.30;3.90;;;13.40;99.90;;;;;;4974865;28;20431;-80
2023/05/08 02:54:16;;;;;;;4.40;4.00;;;13.30;99.90;;;;;;4973715;28;20434;-83
2023/05/08 02:57:15;;;;;;;4.97;4.20;;;13.30;99.90;;;;;;4976965;28;20426;-83
2023/05/08 02:59:49;;;;;;;4.97;4.53;;;13.30;99.90;;;;;;4977708;28;20434;-79
2023/05/08 03:02:24;;;;;;;4.97;4.30;;;13.30;99.90;;;;;;4978833;28;20466;-83
2023/05/08 03:04:55;;;;;;;4.73;4.30;;;13.20;99.90;;;;;;4978516;28;20229;-79
2023/05/08 03:07:24;;;;;;;4.77;4.33;;;13.20;99.90;;;;;;4978792;28;20896;-79
2023/05/08 03:09:57;;;;;;;4.40;4.00;;;13.20;99.90;;;;;;4979044;28;20422;-79
2023/05/08 03:12:27;;;;;;;5.60;4.80;;;13.10;99.90;;;;;;4977410;28;20417;-79
2023/05/08 03:15:25;;;;;;;5.60;4.90;;;13.30;99.90;;;;;;4977394;28;20493;-83
2023/05/08 03:18:01;;;;;;;5.13;4.73;;;13.60;99.90;;;;;;4978483;28;20492;-83
2023/05/08 03:20:32;;;;;;;5.80;4.83;;;13.90;99.90;;;;;;4977254;28;20433;-82
2023/05/08 03:22:59;;;;;;;7.90;5.20;;;13.90;99.90;;;;;;4977260;28;20473;-80
2023/05/08 03:25:26;;;;;;;7.00;6.40;;;14.10;99.90;;;;;;4978327;28;20522;-83
2023/05/08 03:27:52;;;;;;;7.00;5.73;;;14.20;99.90;;;;;;4979177;28;20433;-79
2023/05/08 03:30:19;;;;;;;7.00;5.90;;;14.30;99.90;;;;;;4977128;28;20500;-80
2023/05/08 03:32:46;;;;;;;5.70;5.03;;;14.30;99.90;;;;;;4978169;28;20781;-83
2023/05/08 03:35:14;;;;;;;6.70;5.80;;;14.40;99.90;;;;;;4978438;28;20434;-80
2023/05/08 03:37:41;;;;;;;5.63;5.13;;;14.50;99.90;;;;;;4978266;28;20864;-79
2023/05/08 03:40:08;;;;;;;7.77;5.40;;;14.60;99.90;;;;;;4978499;28;20434;-83
2023/05/08 03:42:35;;;;;;;5.47;4.80;;;14.60;99.90;;;;;;4978167;28;21049;-79
2023/05/08 03:45:02;;;;;;;5.50;5.00;;;14.60;99.90;;;;;;4976556;28;20445;-80
2023/05/08 03:47:28;;;;;;;7.93;5.00;;;14.60;99.90;;;;;;4978025;28;20842;-79
2023/05/08 03:49:54;;;;;;;6.73;5.20;;;14.60;99.90;;;;;;4977767;28;20521;-80
2023/05/08 03:52:20;;;;;;;7.67;5.30;;;14.70;99.90;;;;;;4977888;28;20446;-79
2023/05/08 03:54:46;;;;;;;4.40;4.00;;;14.80;99.90;;;;;;4976615;28;20450;-79
2023/05/08 03:57:12;;;;;;;5.00;4.50;;;15.00;99.90;;;;;;4976576;28;20669;-82
2023/05/08 03:59:58;;;;;;;5.40;4.90;;;15.10;99.90;;;;;;4978053;28;20188;-83
2023/05/08 04:02:40;;;;;;;6.03;4.70;;;15.20;99.90;;;;;;4977209;28;20212;-80
2023/05/08 04:05:33;;;;;;;5.63;4.63;;;15.10;99.90;;;;;;4977385;28;20485;-83
2023/05/08 04:08:15;;;;;;;6.10;4.23;;;15.00;99.90;;;;;;4976057;28;20524;-83
2023/05/08 04:11:10;;;;;;;5.00;4.50;;;15.00;99.90;;;;;;4976264;28;20508;-84
2023/05/08 04:13:44;;;;;;;4.03;3.53;;;15.10;99.90;;;;;;4960738;28;20432;-80
2023/05/08 04:16:20;;;;;;;5.00;4.17;;;15.40;99.90;;;;;;4977250;28;20425;-80
2023/05/08 04:18:48;;;;;;;4.30;3.80;;;15.50;99.90;;;;;;4981241;28;20437;-83
2023/05/08 04:21:21;;;;;;;4.80;4.07;;;15.40;99.90;;;;;;5011399;28;20453;-83
2023/05/08 04:23:49;;;;;;;4.50;4.10;;;15.40;99.90;;;;;;5012075;28;20449;-83
2023/05/08 04:26:17;;;;;;;5.90;4.77;;;15.40;99.90;;;;;;4995059;28;20440;-83
2023/05/08 04:28:45;;;;;;;6.57;4.50;;;15.40;99.90;;;;;;4988620;28;20469;-80
2023/05/08 04:31:14;;;;;;;3.63;3.33;;;15.40;99.90;;;;;;4993503;28;20986;-84
2023/05/08 04:33:41;;;;;;;5.07;4.37;;;15.40;99.90;;;;;;4996726;28;20418;-83
2023/05/08 04:36:12;;;;;;;3.50;3.20;;;15.50;99.90;;;;;;4993245;28;20511;-83
2023/05/08 04:38:39;;;;;;;3.53;3.23;;;15.50;99.90;;;;;;4983647;28;20541;-80
2023/05/08 04:41:05;;;;;;;4.13;3.83;;;15.50;99.90;;;;;;4975533;28;20505;-80
2023/05/08 04:43:30;;;;;;;3.97;3.60;;;15.40;99.90;;;;;;4975388;28;20577;-81
2023/05/08 04:45:56;;;;;;;3.87;3.47;;;15.40;99.90;;;;;;4973901;28;20192;-82
2023/05/08 04:48:22;;;;;;;4.30;3.90;;;15.50;99.90;;;;;;4978341;28;20184;-83
2023/05/08 04:50:47;;;;;;;10.80;7.33;;;15.40;99.90;;;;;;4983217;28;20208;-82
2023/05/08 04:53:13;;;;;;;8.53;5.57;;;15.30;99.90;;;;;;4978918;28;20196;-85
2023/05/08 04:55:39;;;;;;;4.43;3.20;;;15.40;99.90;;;;;;4977184;28;20196;-80
2023/05/08 04:58:04;;;;;;;4.60;3.57;;;15.40;99.90;;;;;;4993188;28;20188;-85
2023/05/08 05:00:30;;;;;;;4.20;3.80;;;15.50;99.90;;;;;;4990962;28;20681;-84
2023/05/08 05:02:56;;;;;;;3.90;3.50;;;15.70;99.90;;;;;;4992935;28;20299;-80
2023/05/08 05:05:21;;;;;;;3.57;3.27;;;15.80;99.90;;;;;;4992982;28;20588;-84
2023/05/08 05:07:47;;;;;;;3.80;3.37;;;15.70;99.90;;;;;;4996373;28;20645;-90
2023/05/08 05:10:13;;;;;;;3.70;3.20;;;15.70;99.90;;;;;;4992846;28;20196;-87
2023/05/08 05:12:38;;;;;;;4.60;3.60;;;15.80;99.90;;;;;;4990229;28;20229;-88
2023/05/08 05:15:05;;;;;;;7.90;4.40;;;15.70;99.90;;;;;;4979000;28;20279;-84
2023/05/08 05:17:30;;;;;;;3.53;3.20;;;15.70;99.90;;;;;;4978809;28;20232;-85
2023/05/08 05:19:57;;;;;;;4.07;3.40;;;15.90;99.90;;;;;;4975252;28;20454;-82
2023/05/08 05:22:22;;;;;;;2.90;2.70;;;15.90;99.90;;;;;;4984081;28;20261;-85
2023/05/08 05:24:48;;;;;;;3.00;2.70;;;15.90;99.90;;;;;;4981005;28;20477;-82
2023/05/08 05:27:13;;;;;;;3.23;2.80;;;15.90;99.90;;;;;;4991839;28;20550;-86
2023/05/08 05:29:39;;;;;;;3.37;3.07;;;16.00;99.90;;;;;;4993834;28;20660;-88
2023/05/08 05:32:06;;;;;;;3.00;2.80;;;16.10;99.90;;;;;;4982010;28;20191;-85
2023/05/08 05:34:32;;;;;;;2.80;2.50;;;16.10;99.90;;;;;;4991029;28;20247;-87
2023/05/08 05:36:57;;;;;;;2.90;2.70;;;16.00;99.90;;;;;;4977372;28;20454;-81
2023/05/08 05:39:23;;;;;;;3.07;2.87;;;15.80;99.90;;;;;;4987593;28;21120;-82
2023/05/08 05:41:48;;;;;;;41.90;23.07;;;15.40;99.90;;;;;;4980163;28;20220;-87
2023/05/08 05:44:14;;;;;;;4.83;2.90;;;15.10;99.90;;;;;;4989957;28;20204;-86
2023/05/08 05:46:41;;;;;;;3.87;2.37;;;14.90;99.90;;;;;;4978841;28;20200;-87
2023/05/08 05:49:07;;;;;;;2.27;2.07;;;14.80;99.90;;;;;;4974126;28;20239;-87
2023/05/08 05:51:33;;;;;;;4.50;2.93;;;14.70;99.90;;;;;;4973631;28;20422;-87
2023/05/08 05:53:58;;;;;;;2.60;2.40;;;14.60;99.90;;;;;;4979135;28;20192;-82
2023/05/08 05:56:24;;;;;;;4.93;2.77;;;14.70;99.90;;;;;;4986184;28;20196;-87
2023/05/08 05:58:50;;;;;;;4.30;2.97;;;14.70;99.90;;;;;;4982762;28;20215;-87
2023/05/08 06:01:16;;;;;;;2.90;2.70;;;14.70;99.90;;;;;;4992533;28;20192;-86
2023/05/08 06:03:42;;;;;;;4.93;2.67;;;14.60;99.90;;;;;;4987807;28;20513;-82
2023/05/08 06:06:08;;;;;;;3.67;2.93;;;14.50;99.90;;;;;;4979919;28;20456;-81
2023/05/08 06:08:34;;;;;;;2.60;2.40;;;14.40;99.90;;;;;;4986293;28;20429;-81
2023/05/08 06:11:00;;;;;;;2.67;2.47;;;14.40;99.90;;;;;;4988305;28;20975;-87
2023/05/08 06:13:26;;;;;;;4.10;2.77;;;14.40;99.90;;;;;;4991334;28;20203;-83
2023/05/08 06:15:55;;;;;;;2.87;2.57;;;14.40;99.90;;;;;;4987074;28;20200;-82
2023/05/08 06:18:21;;;;;;;3.83;2.30;;;14.50;99.90;;;;;;4985492;28;20440;-87
2023/05/08 06:20:46;;;;;;;2.30;2.10;;;14.50;99.90;;;;;;4988490;28;20528;-81
2023/05/08 06:23:13;;;;;;;2.53;2.23;;;14.60;99.90;;;;;;4989219;28;20509;-87
2023/05/08 06:25:39;;;;;;;2.20;2.10;;;14.60;99.90;;;;;;4980502;28;20196;-82
2023/05/08 06:28:06;;;;;;;3.23;2.60;;;14.60;99.90;;;;;;4982117;28;21115;-82
2023/05/08 06:30:33;;;;;;;5.10;2.10;;;14.70;99.90;;;;;;4985286;28;20450;-87
2023/05/08 06:32:58;;;;;;;3.00;1.90;;;14.70;99.90;;;;;;4980816;28;20474;-82
2023/05/08 06:35:25;;;;;;;2.67;2.47;;;14.80;99.90;;;;;;4982402;28;20438;-83
2023/05/08 06:37:51;;;;;;;3.17;2.87;;;14.90;99.90;;;;;;4988763;28;20464;-81
2023/05/08 06:40:17;;;;;;;2.90;2.50;;;15.00;99.90;;;;;;4976766;28;20253;-81
2023/05/08 06:42:43;;;;;;;3.50;2.67;;;15.00;99.90;;;;;;4986971;28;20907;-87
2023/05/08 06:45:09;;;;;;;2.60;2.40;;;15.10;99.90;;;;;;4986108;28;20453;-82
2023/05/08 06:47:35;;;;;;;4.53;2.83;;;15.10;99.90;;;;;;4990473;28;20195;-88
2023/05/08 06:50:01;;;;;;;6.00;4.87;;;15.20;99.90;;;;;;4991830;28;20457;-83
2023/05/08 06:52:26;;;;;;;2.43;2.23;;;15.20;99.90;;;;;;4980145;28;20517;-87
2023/05/08 06:54:52;;;;;;;3.00;2.67;;;15.30;99.90;;;;;;4986648;28;20254;-82
2023/05/08 06:57:17;;;;;;;2.63;2.43;;;15.40;99.90;;;;;;4978354;28;20266;-86
2023/05/08 06:59:43;;;;;;;2.90;2.30;;;15.40;99.90;;;;;;4986364;28;20541;-87
2023/05/08 07:02:09;;;;;;;2.63;2.43;;;15.50;99.90;;;;;;4981798;28;20882;-86
2023/05/08 07:04:35;;;;;;;2.70;2.17;;;15.50;99.90;;;;;;4988949;28;20223;-88
2023/05/08 07:07:01;;;;;;;2.30;2.10;;;15.60;99.90;;;;;;4982230;28;20424;-82
2023/05/08 07:09:27;;;;;;;3.60;2.33;;;15.70;99.90;;;;;;4986571;28;20445;-83
2023/05/08 07:11:53;;;;;;;4.10;2.20;;;15.80;99.90;;;;;;4977924;28;21013;-82
2023/05/08 07:14:18;;;;;;;2.13;1.90;;;15.80;99.90;;;;;;4987039;28;20184;-89
2023/05/08 07:16:44;;;;;;;2.20;2.00;;;15.90;99.90;;;;;;4985888;28;20195;-82
2023/05/08 07:19:10;;;;;;;2.83;2.00;;;16.00;99.90;;;;;;4975011;28;20197;-88
2023/05/08 07:21:36;;;;;;;3.00;2.40;;;16.00;99.90;;;;;;4987697;28;20340;-82
2023/05/08 07:24:01;;;;;;;2.57;2.13;;;16.10;99.90;;;;;;4975820;28;20187;-82
2023/05/08 07:26:27;;;;;;;2.40;2.20;;;16.10;99.90;;;;;;4972973;28;20509;-83
2023/05/08 07:28:53;;;;;;;3.23;2.23;;;16.20;99.90;;;;;;4983717;28;20557;-82
2023/05/08 07:31:20;;;;;;;2.80;2.17;;;16.30;99.90;;;;;;4979298;28;20203;-82
2023/05/08 07:33:45;;;;;;;4.20;2.50;;;16.40;99.90;;;;;;4973249;28;20214;-82
2023/05/08 07:36:11;;;;;;;3.80;2.57;;;16.40;99.90;;;;;;4977152;28;20536;-87
2023/05/08 07:38:37;;;;;;;3.13;2.60;;;16.50;99.90;;;;;;4970578;28;20264;-88
2023/05/08 07:41:04;;;;;;;2.43;2.23;;;16.40;99.90;;;;;;4984157;28;20449;-87
2023/05/08 07:43:30;;;;;;;3.00;2.70;;;16.40;99.90;;;;;;4971916;28;20251;-82
2023/05/08 07:45:56;;;;;;;4.20;2.47;;;16.50;99.90;;;;;;4975539;28;20442;-86
2023/05/08 07:48:22;;;;;;;5.70;3.13;;;16.50;99.90;;;;;;4985931;28;20433;-82
2023/05/08 07:50:50;;;;;;;14.20;2.83;;;16.60;99.90;;;;;;4980407;28;20646;-82
2023/05/08 07:53:16;;;;;;;2.50;2.20;;;16.70;99.90;;;;;;4985507;28;20852;-82
2023/05/08 07:55:42;;;;;;;2.33;2.13;;;16.70;99.90;;;;;;4981583;28;20535;-83
2023/05/08 07:58:07;;;;;;;2.87;2.50;;;16.80;99.90;;;;;;4982057;28;20669;-87
2023/05/08 08:00:33;;;;;;;2.87;2.47;;;16.80;99.90;;;;;;4982652;28;20204;-82
2023/05/08 08:02:59;;;;;;;4.00;2.67;;;16.90;99.90;;;;;;4974850;28;20740;-87
2023/05/08 08:05:24;;;;;;;165.20;84.53;;;16.90;99.90;;;;;;4980876;28;20232;-82
2023/05/08 08:07:50;;;;;;;11.23;6.30;;;17.00;99.90;;;;;;4973783;28;20716;-82
2023/05/08 08:10:16;;;;;;;5.57;2.63;;;17.10;99.90;;;;;;4982717;28;20503;-87
2023/05/08 08:12:41;;;;;;;5.90;2.53;;;17.20;99.90;;;;;;4984107;28;20224;-88
2023/05/08 08:15:07;;;;;;;4.00;3.37;;;17.30;99.90;;;;;;4969564;28;20266;-89
2023/05/08 08:17:33;;;;;;;2.90;2.60;;;17.40;99.90;;;;;;4967585;28;20716;-82
2023/05/08 08:19:59;;;;;;;2.63;2.43;;;17.40;99.90;;;;;;4986535;28;20442;-82
2023/05/08 08:22:25;;;;;;;2.60;2.40;;;17.50;99.90;;;;;;4970637;28;20457;-87
2023/05/08 08:24:53;;;;;;;5.23;2.23;;;17.60;99.90;;;;;;4965819;28;20196;-82
2023/05/08 08:27:18;;;;;;;2.57;2.37;;;17.60;99.90;;;;;;4981098;28;20416;-87
2023/05/08 08:29:44;;;;;;;3.40;3.00;;;17.70;99.90;;;;;;4979990;28;20450;-82
2023/05/08 08:32:10;;;;;;;5.93;2.47;;;17.80;99.90;;;;;;4963382;28;20246;-87
2023/05/08 08:34:36;;;;;;;2.00;1.90;;;17.80;99.90;;;;;;4966707;28;20187;-82
2023/05/08 08:37:03;;;;;;;7.70;3.00;;;17.80;99.90;;;;;;4966149;28;20440;-87
2023/05/08 08:39:33;;;;;;;2.60;2.20;;;17.90;99.90;;;;;;4969990;28;20438;-82
2023/05/08 08:41:59;;;;;;;4.90;2.73;;;18.10;99.90;;;;;;4972173;28;20477;-83
2023/05/08 08:44:25;;;;;;;3.27;2.53;;;18.10;99.90;;;;;;4980740;28;20970;-87
2023/05/08 08:46:51;;;;;;;2.93;2.60;;;18.20;99.90;;;;;;4986113;28;20454;-88
2023/05/08 08:49:41;;;;;;;2.43;2.20;;;18.30;99.90;;;;;;4983631;28;20437;-88
2023/05/08 08:52:33;;;;;;;3.13;2.40;;;18.40;99.90;;;;;;4970376;28;20412;-87
2023/05/08 08:55:01;;;;;;;5.70;3.10;;;18.50;99.90;;;;;;4972552;28;20826;-87
2023/05/08 08:57:31;;;;;;;3.40;3.17;;;18.50;99.90;;;;;;4973495;28;20425;-88
2023/05/08 08:59:58;;;;;;;3.20;2.80;;;18.60;99.90;;;;;;4981927;28;20536;-83
2023/05/08 09:02:26;;;;;;;6.23;2.80;;;18.60;99.90;;;;;;4975486;28;20470;-82
2023/05/08 09:04:51;;;;;;;3.57;3.10;;;18.70;99.90;;;;;;4975014;28;20481;-82
2023/05/08 09:07:18;;;;;;;2.53;2.33;;;18.80;99.90;;;;;;4981722;28;20438;-82
2023/05/08 09:09:44;;;;;;;3.90;3.20;;;18.90;99.90;;;;;;4993003;28;20194;-82
2023/05/08 09:12:12;;;;;;;5.57;2.77;;;19.00;99.90;;;;;;4979740;28;20990;-87
2023/05/08 09:14:37;;;;;;;3.40;2.10;;;19.10;99.90;;;;;;4985494;28;20837;-87
2023/05/08 09:17:03;;;;;;;2.90;2.50;;;19.10;99.80;;;;;;4984457;28;20528;-87
2023/05/08 09:19:30;;;;;;;2.10;1.90;;;19.20;99.60;;;;;;4984591;28;20674;-88
2023/05/08 09:21:59;;;;;;;2.07;1.87;;;19.20;99.90;;;;;;4984305;28;20466;-84
2023/05/08 09:24:26;;;;;;;5.67;3.07;;;19.30;99.90;;;;;;4992666;28;20452;-87
2023/05/08 09:26:52;;;;;;;4.57;2.50;;;19.40;99.90;;;;;;4993964;28;20497;-87
2023/05/08 09:29:22;;;;;;;2.60;2.40;;;19.50;98.80;;;;;;4979712;28;20443;-87
2023/05/08 09:31:50;;;;;;;4.50;2.30;;;19.40;99.00;;;;;;4974045;28;20455;-88
2023/05/08 09:34:31;;;;;;;4.20;1.97;;;19.40;99.90;;;;;;4978407;28;20498;-87
2023/05/08 09:37:11;;;;;;;3.23;2.00;;;19.40;99.20;;;;;;4974328;28;20469;-88
2023/05/08 09:39:40;;;;;;;2.20;2.00;;;19.50;99.40;;;;;;4972905;28;20443;-83
2023/05/08 09:42:06;;;;;;;2.50;1.57;;;19.60;99.50;;;;;;4985769;28;20466;-87
2023/05/08 09:44:52;;;;;;;5.37;2.40;;;19.70;99.70;;;;;;4977730;28;20436;-87
2023/05/08 09:47:23;;;;;;;3.10;2.13;;;19.70;99.80;;;;;;4992005;28;20263;-87
2023/05/08 09:50:04;;;;;;;2.33;2.13;;;19.80;99.10;;;;;;4991655;28;20801;-83
2023/05/08 09:52:31;;;;;;;2.60;2.40;;;19.80;99.00;;;;;;4982700;28;20439;-83
2023/05/08 09:55:08;;;;;;;5.00;1.97;;;19.70;98.20;;;;;;4989742;28;20839;-82
2023/05/08 09:57:38;;;;;;;1.80;1.70;;;19.70;98.00;;;;;;4974491;28;20951;-87
2023/05/08 10:00:13;;;;;;;1.73;1.63;;;19.70;97.90;;;;;;4985194;28;20464;-83
2023/05/08 10:02:40;;;;;;;4.73;2.20;;;19.60;98.20;;;;;;4972998;28;20547;-83
2023/05/08 10:05:36;;;;;;;3.73;1.90;;;19.80;98.30;;;;;;4984643;28;20515;-84
2023/05/08 10:08:18;;;;;;;2.80;2.30;;;19.90;97.90;;;;;;4977913;28;20590;-84
2023/05/08 10:10:44;;;;;;;4.50;2.07;;;19.90;97.80;;;;;;4989685;28;20460;-83
2023/05/08 10:13:09;;;;;;;2.83;2.20;;;19.90;97.70;;;;;;4987366;28;20979;-82
2023/05/08 10:15:37;;;;;;;2.60;2.00;;;20.00;97.70;;;;;;4976709;28;20211;-84
2023/05/08 10:18:04;;;;;;;4.57;2.57;;;19.90;98.40;;;;;;4978095;28;20433;-82
2023/05/08 10:20:32;;;;;;;5.30;2.00;;;20.00;97.70;;;;;;4985603;28;20553;-84
2023/05/08 10:22:57;;;;;;;2.50;2.10;;;19.90;96.90;;;;;;4980661;28;20494;-86
2023/05/08 10:25:24;;;;;;;2.27;2.00;;;19.90;96.90;;;;;;4986511;28;20448;-88
2023/05/08 10:28:12;;;;;;;2.47;2.27;;;20.00;96.90;;;;;;4995718;28;20433;-83
2023/05/08 10:30:47;;;;;;;3.73;1.93;;;19.90;96.60;;;;;;4984143;28;20459;-83
2023/05/08 10:33:16;;;;;;;3.33;1.50;;;19.90;96.90;;;;;;4979404;28;20510;-83
2023/05/08 10:35:43;;;;;;;1.80;1.70;;;19.90;97.90;;;;;;4978724;28;20524;-87
2023/05/08 10:38:11;;;;;;;1.77;1.67;;;20.00;97.80;;;;;;4976161;28;20442;-87
2023/05/08 10:40:37;;;;;;;2.00;1.80;;;20.10;97.00;;;;;;4976589;28;20446;-85
2023/05/08 10:43:05;;;;;;;2.30;2.10;;;20.10;97.60;;;;;;4975924;28;20507;-86
2023/05/08 10:45:32;;;;;;;3.70;2.30;;;20.10;97.80;;;;;;4975246;28;20489;-81
2023/05/08 10:48:14;;;;;;;2.30;1.67;;;20.20;97.10;;;;;;4990146;28;20444;-86
2023/05/08 10:51:10;;;;;;;2.33;2.13;;;20.20;97.00;;;;;;4987494;28;20456;-86
2023/05/08 10:53:58;;;;;;;3.23;2.30;;;20.20;95.90;;;;;;4981258;28;20830;-86
2023/05/08 10:56:27;;;;;;;3.13;1.70;;;20.20;96.00;;;;;;4981978;28;20994;-82
2023/05/08 10:58:57;;;;;;;1.60;1.50;;;20.30;96.30;;;;;;4980296;28;20452;-87
2023/05/08 11:01:26;;;;;;;3.90;1.80;;;20.30;96.00;;;;;;4978486;28;20783;-82
2023/05/08 11:03:54;;;;;;;2.93;1.87;;;20.30;96.20;;;;;;4931022;28;1228972;-81
2023/05/08 11:06:45;;;;;;;2.57;1.70;;;20.40;96.30;;;;;;4979052;28;20301;-82
2023/05/08 11:09:21;;;;;;;2.40;2.00;;;20.40;96.00;;;;;;4982734;28;20556;-86
2023/05/08 11:12:07;;;;;;;1.97;1.80;;;20.40;94.50;;;;;;4984115;28;20460;-87
2023/05/08 11:14:36;;;;;;;2.97;1.53;;;20.40;94.40;;;;;;4985554;28;20445;-81
2023/05/08 11:17:03;;;;;;;1.30;1.20;;;20.40;95.00;;;;;;5000648;28;20448;-87
2023/05/08 11:19:29;;;;;;;2.00;1.73;;;20.40;95.70;;;;;;4986116;28;20441;-88
2023/05/08 11:22:14;;;;;;;3.70;2.17;;;20.30;95.60;;;;;;4990922;28;22768;-82
2023/05/08 11:24:51;;;;;;;3.67;1.90;;;20.40;95.70;;;;;;4987395;28;20456;-82
2023/05/08 11:27:17;;;;;;;4.00;1.73;;;20.40;96.70;;;;;;4986955;28;20428;-87
2023/05/08 11:29:43;;;;;;;2.33;1.57;;;20.40;95.80;;;;;;4983334;28;20445;-82
2023/05/08 11:32:09;;;;;;;3.93;2.00;;;20.50;94.80;;;;;;4984696;28;20455;-82
2023/05/08 11:34:41;;;;;;;1.57;1.47;;;20.60;95.70;;;;;;4982229;28;20441;-87
2023/05/08 11:37:18;;;;;;;8.17;2.10;;;20.60;97.10;;;;;;4978796;28;20930;-82
2023/05/08 11:39:45;;;;;;;7.37;2.03;;;20.60;95.60;;;;;;4988198;28;20491;-82
2023/05/08 11:42:26;;;;;;;1.73;1.63;;;20.70;96.70;;;;;;4984479;28;20472;-82
2023/05/08 11:45:08;;;;;;;2.30;1.50;;;20.70;96.30;;;;;;4983639;28;20467;-87
2023/05/08 11:47:40;;;;;;;2.27;2.00;;;20.80;95.30;;;;;;4985575;28;20444;-86
2023/05/08 11:50:07;;;;;;;2.37;1.90;;;20.90;95.00;;;;;;4997245;28;20523;-82
2023/05/08 11:59:18;;;;;;;2.60;1.90;;;21.00;95.60;;;;;;4991556;28;20443;-88
2023/05/08 12:01:44;;;;;;;4.83;2.57;;;21.10;94.90;;;;;;4990526;28;20483;-86
2023/05/08 12:04:11;;;;;;;2.30;2.00;;;21.00;94.70;;;;;;4986235;28;20492;-82
2023/05/08 12:06:38;;;;;;;1.87;1.77;;;21.00;94.80;;;;;;4990175;28;20676;-82
2023/05/08 12:09:13;;;;;;;1.83;1.70;;;21.00;94.70;;;;;;4983373;28;20508;-86
2023/05/08 12:11:42;;;;;;;2.40;2.17;;;21.00;94.50;;;;;;4987748;28;20483;-82
2023/05/08 12:14:08;;;;;;;9.33;2.87;;;21.10;93.60;;;;;;4988811;28;20452;-81
2023/05/08 12:16:36;;;;;;;3.27;2.10;;;21.00;93.90;;;;;;4990562;28;20457;-86
2023/05/08 12:19:02;;;;;;;2.13;1.70;;;21.10;94.30;;;;;;4986150;28;20848;-88
2023/05/08 12:21:28;;;;;;;5.60;2.60;;;21.10;95.20;;;;;;4986518;28;20461;-81
2023/05/08 12:23:57;;;;;;;1.70;1.60;;;21.10;94.50;;;;;;4987811;28;20550;-86
2023/05/08 12:26:22;;;;;;;3.20;2.50;;;21.20;94.00;;;;;;4986666;28;20250;-88
2023/05/08 12:28:55;;;;;;;5.40;2.67;;;21.20;93.70;;;;;;4981283;28;20437;-86
2023/05/08 12:31:21;;;;;;;2.47;2.27;;;21.20;94.00;;;;;;4982558;28;20277;-83
2023/05/08 12:33:47;;;;;;;3.43;2.10;;;21.20;93.70;;;;;;4982576;28;20955;-86
2023/05/08 12:36:13;;;;;;;1.93;1.83;;;21.20;94.20;;;;;;4986058;28;20510;-86
2023/05/08 12:38:39;;;;;;;6.40;2.50;;;21.20;94.10;;;;;;4981698;28;20446;-82
2023/05/08 12:41:07;;;;;;;5.40;2.43;;;21.20;93.70;;;;;;4984428;28;20550;-81
2023/05/08 12:43:36;;;;;;;2.30;2.10;;;21.30;93.10;;;;;;4977680;28;20699;-86
2023/05/08 12:46:03;;;;;;;2.97;2.13;;;21.20;93.00;;;;;;4977833;28;20994;-86
2023/05/08 12:48:29;;;;;;;1.87;1.60;;;21.20;92.90;;;;;;4978995;28;20462;-86
2023/05/08 12:51:02;;;;;;;3.43;2.20;;;21.20;93.60;;;;;;4984723;28;20561;-84
2023/05/08 12:53:30;;;;;;;3.93;1.97;;;21.20;94.50;;;;;;4975345;28;20430;-82
2023/05/08 12:55:59;;;;;;;2.30;2.00;;;21.10;94.90;;;;;;4988849;28;20484;-81
2023/05/08 12:58:34;;;;;;;2.10;1.93;;;21.20;94.50;;;;;;4978608;28;20489;-86
2023/05/08 13:01:08;;;;;;;3.83;3.27;;;21.20;93.50;;;;;;4989379;28;20452;-86
2023/05/08 13:03:35;;;;;;;6.70;4.20;;;21.20;94.30;;;;;;4979042;28;20480;-81